Cabernet Sauvignon Commodore — WDB3227 — position and weather

sailwx.info

Track history (hours):
 
Tides and Currents Weather Stations Pressure Air Temp Water Temp Dewpoint Dewpoint Depression Visibility Wind Speed Wind Dir Waves Ship Positions

Cabernet Sauvignon Commodore

Owner: Commodore Dining Cruises, INC., Alameda, CA. More information available from US FCC via Universal Licensing System and Coast Guard Vessel Documentation Center.

Last reported at 2017-Dec-15 05:22 UTC. Time now 2017-Dec-16 22:42 UTC.
Position N 37°48' W 122°17'.

Length 30 m; draft 2 m.

Type: Passenger vessel. MMSI: 366884810.

Date/timePositionNaut miles runAvg speedWind from/ knotsBaromVisibWave heightAir tempDewpointWater temp
2017-Dec-15 05:22N 37°48' W 122°17'1 3.4
2017-Dec-15 05:00N 37°47' W 122°18'4 7.3
2017-Dec-15 04:30N 37°48' W 122°23'3 5.0
2017-Dec-15 04:00N 37°49' W 122°26'6 3.7
2017-Dec-15 02:30N 37°48' W 122°19'  
2017-Dec-10 05:27N 37°48' W 122°17'2 5.0
2017-Dec-10 05:00N 37°48' W 122°19'3 6.8
2017-Dec-10 04:30N 37°49' W 122°23'3 5.5
2017-Dec-10 04:01N 37°49' W 122°27'2 3.1
2017-Dec-10 03:30N 37°49' W 122°25'3 5.7
2017-Dec-10 03:00N 37°48' W 122°22'4 7.7
2017-Dec-10 02:31N 37°48' W 122°17'0 0.3
2017-Dec-10 02:01N 37°47' W 122°17'0 0.0
2017-Dec-10 01:31N 37°47' W 122°17'0 0.0
2017-Dec-10 01:01N 37°47' W 122°17'0 0.0
2017-Dec-10 00:30N 37°47' W 122°17'0 0.0
2017-Dec-10 00:00N 37°47' W 122°17'  
Track history (hours):
 
Tides and Currents Weather Stations Pressure Air Temp Water Temp Dewpoint Dewpoint Depression Visibility Wind Speed Wind Dir Waves Ship Positions

Cabernet Sauvignon Commodore

Owner: Commodore Dining Cruises, INC., Alameda, CA. More information available from US FCC via Universal Licensing System and Coast Guard Vessel Documentation Center.

Last reported at 2017-Dec-15 05:22 UTC. Time now 2017-Dec-16 22:42 UTC.
Position N 37°48' W 122°17'.

Length 30 m; draft 2 m.

Type: Passenger vessel. MMSI: 366884810.

Date/timePositionNaut miles runAvg speedWind from/ knotsBaromVisibWave heightAir tempDewpointWater temp
2017-Dec-15 05:22N 37°48' W 122°17'1 3.4
2017-Dec-15 05:00N 37°47' W 122°18'4 7.3
2017-Dec-15 04:30N 37°48' W 122°23'3 5.0
2017-Dec-15 04:00N 37°49' W 122°26'6 3.7
2017-Dec-15 02:30N 37°48' W 122°19'  
2017-Dec-10 05:27N 37°48' W 122°17'2 5.0
2017-Dec-10 05:00N 37°48' W 122°19'3 6.8
2017-Dec-10 04:30N 37°49' W 122°23'3 5.5
2017-Dec-10 04:01N 37°49' W 122°27'2 3.1
2017-Dec-10 03:30N 37°49' W 122°25'3 5.7
2017-Dec-10 03:00N 37°48' W 122°22'4 7.7
2017-Dec-10 02:31N 37°48' W 122°17'0 0.3
2017-Dec-10 02:01N 37°47' W 122°17'0 0.0
2017-Dec-10 01:31N 37°47' W 122°17'0 0.0
2017-Dec-10 01:01N 37°47' W 122°17'0 0.0
2017-Dec-10 00:30N 37°47' W 122°17'0 0.0
2017-Dec-10 00:00N 37°47' W 122°17'  

Dump ship's entire track history